Time;durP1;ratioP1;P1;durP2;ratioP2;P2;SDS_P1;SDS_P2;PMS_P1;PMS_P2;Temp;Humidity;BMP_temperature;BMP_pressure;BME280_temperature;BME280_humidity;BME280_pressure;Samples;Min_cycle;Max_cycle;Signal;HPM_P1;HPM_P2
2023/03/26 00:03:16;;;;;;;4.97;1.90;;;;;8.10;95627.00;;;;8401044;28;20219;-68
2023/03/26 00:07:23;;;;;;;1.75;1.20;;;;;8.10;95623.00;;;;8400596;28;20220;-69
2023/03/26 00:11:30;;;;;;;3.00;1.53;;;;;8.20;95642.00;;;;8401023;28;20192;-68
2023/03/26 00:15:37;;;;;;;4.60;1.97;;;;;8.20;95646.00;;;;8400276;28;20246;-68
2023/03/26 00:19:41;;;;;;;4.77;1.53;;;;;8.20;95654.00;;;;8400866;28;20192;-69
2023/03/26 00:23:52;;;;;;;8.13;1.73;;;;;8.20;95655.00;;;;8400890;28;20196;-68
2023/03/26 00:27:58;;;;;;;6.33;1.43;;;;;8.20;95651.00;;;;8399794;28;20219;-68
2023/03/26 00:32:03;;;;;;;4.10;1.20;;;;;8.20;95652.00;;;;8400838;28;20545;-67
2023/03/26 00:36:09;;;;;;;5.30;1.37;;;;;8.20;95663.00;;;;8395493;28;20192;-67
2023/03/26 00:40:13;;;;;;;2.10;1.40;;;;;8.20;95649.00;;;;8398923;28;20196;-68
2023/03/26 00:44:16;;;;;;;3.07;1.57;;;;;8.10;95654.00;;;;8399720;28;20200;-68
2023/03/26 00:48:21;;;;;;;6.13;1.60;;;;;8.20;95661.00;;;;8397878;28;20239;-68
2023/03/26 00:52:47;;;;;;;4.93;1.83;;;;;8.20;95654.00;;;;8399721;28;20671;-67
2023/03/26 00:56:54;;;;;;;5.77;1.80;;;;;8.30;95656.00;;;;8398360;28;20218;-68
2023/03/26 01:01:01;;;;;;;4.63;1.30;;;;;8.40;95653.00;;;;8399720;28;20622;-68
2023/03/26 01:05:41;;;;;;;5.30;2.57;;;;;8.50;95653.00;;;;8399533;28;20232;-68
2023/03/26 01:09:51;;;;;;;6.28;1.58;;;;;8.60;95656.00;;;;8398464;28;20192;-68
2023/03/26 01:13:58;;;;;;;5.70;1.50;;;;;8.60;95652.00;;;;8398306;28;20196;-67
2023/03/26 01:18:03;;;;;;;2.38;1.45;;;;;8.60;95648.00;;;;8398709;28;20196;-68
2023/03/26 01:22:13;;;;;;;7.70;1.63;;;;;8.60;95651.00;;;;8398937;28;20200;-67
2023/03/26 01:26:30;;;;;;;3.20;1.55;;;;;8.60;95659.00;;;;8397038;28;20269;-67
2023/03/26 01:30:42;;;;;;;6.80;1.67;;;;;8.50;95649.00;;;;8399058;28;20629;-68
2023/03/26 01:34:58;;;;;;;3.35;1.40;;;;;8.40;95656.00;;;;8398318;28;20192;-68
2023/03/26 01:39:09;;;;;;;5.37;1.57;;;;;8.30;95661.00;;;;8398120;28;20198;-67
2023/03/26 01:43:24;;;;;;;7.23;1.80;;;;;8.20;95658.00;;;;8398024;28;20192;-67
2023/03/26 01:47:29;;;;;;;7.20;1.70;;;;;8.10;95658.00;;;;8398146;28;20220;-67
2023/03/26 01:51:35;;;;;;;4.90;1.52;;;;;8.10;95662.00;;;;8398057;28;20246;-67
2023/03/26 01:55:48;;;;;;;5.07;1.53;;;;;8.10;95650.00;;;;8398317;28;20196;-67
2023/03/26 02:00:10;;;;;;;7.53;1.70;;;;;8.10;95650.00;;;;8398502;28;20533;-67
2023/03/26 02:04:24;;;;;;;7.70;1.90;;;;;8.10;95650.00;;;;8397634;28;20228;-67
2023/03/26 02:08:34;;;;;;;3.23;1.50;;;;;8.20;95644.00;;;;8397475;28;20690;-67
2023/03/26 02:12:43;;;;;;;4.00;2.20;;;;;8.30;95645.00;;;;8397655;28;20192;-67
2023/03/26 02:16:51;;;;;;;7.13;1.85;;;;;8.40;95637.00;;;;8397185;28;20199;-67
2023/03/26 02:21:01;;;;;;;5.07;1.65;;;;;8.40;95628.00;;;;8397637;28;20192;-67
2023/03/26 02:25:04;;;;;;;5.80;1.70;;;;;8.50;95630.00;;;;8397324;28;20184;-67
2023/03/26 02:29:08;;;;;;;8.50;1.90;;;;;8.50;95631.00;;;;8380056;28;20223;-67
2023/03/26 02:33:14;;;;;;;4.72;1.88;;;;;8.50;95627.00;;;;8397356;28;20196;-67
2023/03/26 02:37:17;;;;;;;4.07;1.37;;;;;8.50;95634.00;;;;8400486;28;20248;-67
2023/03/26 02:41:28;;;;;;;4.85;1.75;;;;;8.50;95623.00;;;;8404063;28;20192;-67
2023/03/26 02:45:31;;;;;;;10.90;2.05;;;;;8.60;95626.00;;;;8404590;28;20653;-67
2023/03/26 02:49:36;;;;;;;8.87;1.97;;;;;8.60;95609.00;;;;8403057;28;20318;-67
2023/03/26 02:53:40;;;;;;;5.00;1.83;;;;;8.60;95607.00;;;;8385108;28;20192;-67
2023/03/26 02:57:45;;;;;;;4.70;1.70;;;;;8.60;95608.00;;;;8403113;28;20196;-68
2023/03/26 03:01:48;;;;;;;2.87;1.80;;;;;8.60;95604.00;;;;8424771;23;20232;-72
2023/03/26 03:05:54;;;;;;;6.33;1.80;;;;;8.60;95607.00;;;;8396777;28;20195;-69
2023/03/26 03:10:01;;;;;;;4.97;1.73;;;;;8.50;95599.00;;;;8395870;28;20313;-69
2023/03/26 03:14:07;;;;;;;7.75;1.80;;;;;8.40;95599.00;;;;8398108;28;20254;-71
2023/03/26 03:18:10;;;;;;;6.10;1.70;;;;;8.40;95599.00;;;;8406578;28;20416;-72
2023/03/26 03:22:14;;;;;;;7.18;1.70;;;;;8.40;95603.00;;;;8409399;28;20309;-71
2023/03/26 03:26:23;;;;;;;3.70;1.63;;;;;8.40;95598.00;;;;8412895;28;20200;-72
2023/03/26 03:30:26;;;;;;;7.83;1.77;;;;;8.40;95599.00;;;;8418096;28;20196;-72
2023/03/26 03:34:31;;;;;;;6.05;2.05;;;;;8.50;95596.00;;;;8413231;28;20272;-70
2023/03/26 03:38:38;;;;;;;7.10;1.75;;;;;8.50;95571.00;;;;8403949;28;20257;-74
2023/03/26 03:42:41;;;;;;;4.03;1.83;;;;;8.50;95568.00;;;;8407673;28;20770;-70
2023/03/26 03:46:52;;;;;;;5.50;2.03;;;;;8.50;95565.00;;;;8404198;28;20272;-73
2023/03/26 03:50:59;;;;;;;7.33;1.90;;;;;8.50;95571.00;;;;8411092;28;20735;-70
2023/03/26 03:55:05;;;;;;;3.80;1.63;;;;;8.50;95569.00;;;;8407141;28;20655;-72
2023/03/26 03:59:10;;;;;;;10.33;2.80;;;;;8.50;95574.00;;;;8396515;28;20233;-73
2023/03/26 04:03:13;;;;;;;6.10;2.17;;;;;8.40;95569.00;;;;8407288;28;20680;-73
2023/03/26 04:07:16;;;;;;;4.83;1.97;;;;;8.40;95569.00;;;;8391844;28;20232;-70
2023/03/26 04:11:24;;;;;;;6.80;1.97;;;;;8.30;95559.00;;;;8389014;28;20259;-69
2023/03/26 04:15:27;;;;;;;9.70;1.97;;;;;8.10;95555.00;;;;8398191;28;20196;-72
2023/03/26 04:19:30;;;;;;;7.77;2.53;;;;;7.90;95550.00;;;;8405450;28;20210;-73
2023/03/26 04:23:34;;;;;;;9.73;2.53;;;;;7.80;95544.00;;;;8400842;28;20196;-73
2023/03/26 04:27:42;;;;;;;5.73;1.90;;;;;7.70;95555.00;;;;8398806;28;20240;-70
2023/03/26 04:31:49;;;;;;;7.17;1.90;;;;;7.50;95536.00;;;;8399750;28;20207;-73
2023/03/26 04:35:53;;;;;;;7.00;1.90;;;;;7.30;95540.00;;;;8398261;28;20615;-71
2023/03/26 04:39:59;;;;;;;12.70;1.90;;;;;7.10;95543.00;;;;8401276;28;20196;-74
2023/03/26 04:44:06;;;;;;;6.83;2.00;;;;;7.00;95550.00;;;;8395213;28;20202;-70
2023/03/26 04:48:23;;;;;;;10.00;2.23;;;;;6.90;95551.00;;;;8408903;28;20219;-74
2023/03/26 04:52:26;;;;;;;6.60;2.10;;;;;6.80;95549.00;;;;8408537;28;20195;-70
2023/03/26 04:56:44;;;;;;;7.17;2.00;;;;;6.80;95543.00;;;;8422755;28;20192;-72
2023/03/26 05:00:51;;;;;;;8.23;1.90;;;;;6.70;95542.00;;;;8416499;28;20196;-71
2023/03/26 05:04:57;;;;;;;7.37;2.13;;;;;6.70;95538.00;;;;8395941;28;20219;-70
2023/03/26 05:09:02;;;;;;;2.70;1.57;;;;;6.70;95534.00;;;;8402765;28;20827;-72
2023/03/26 05:13:05;;;;;;;5.20;1.83;;;;;6.60;95537.00;;;;8397282;28;20206;-75
2023/03/26 05:17:17;;;;;;;4.33;1.63;;;;;6.60;95538.00;;;;8419505;28;20195;-71
2023/03/26 05:21:21;;;;;;;4.00;2.00;;;;;6.60;95520.00;;;;8419434;28;20204;-73
2023/03/26 05:25:24;;;;;;;2.83;1.90;;;;;6.70;95522.00;;;;8424696;28;20195;-72
2023/03/26 05:29:27;;;;;;;5.43;1.80;;;;;6.70;95519.00;;;;8405934;28;20722;-72
2023/03/26 05:33:33;;;;;;;5.37;1.77;;;;;6.80;95509.00;;;;8416305;28;20192;-74
2023/03/26 05:37:39;;;;;;;4.57;1.73;;;;;6.90;95507.00;;;;8417639;28;20207;-72
2023/03/26 05:41:42;;;;;;;7.20;2.00;;;;;6.90;95500.00;;;;8414712;28;20253;-72
2023/03/26 05:45:47;;;;;;;4.60;1.90;;;;;6.90;95507.00;;;;8405228;28;20772;-73
2023/03/26 05:49:55;;;;;;;6.57;1.90;;;;;6.90;95497.00;;;;8413644;28;20226;-71
2023/03/26 05:54:01;;;;;;;6.13;2.30;;;;;7.00;95500.00;;;;8403376;28;20285;-71
2023/03/26 05:58:06;;;;;;;5.83;1.77;;;;;7.00;95487.00;;;;8405149;28;20246;-72
2023/03/26 06:02:09;;;;;;;4.80;2.10;;;;;7.10;95475.00;;;;8407188;28;20279;-71
2023/03/26 06:06:20;;;;;;;5.77;2.00;;;;;7.20;95464.00;;;;8409827;28;20252;-73
2023/03/26 06:10:23;;;;;;;10.33;2.30;;;;;7.40;95467.00;;;;8407391;28;20294;-76
2023/03/26 06:14:26;;;;;;;8.93;2.23;;;;;7.60;95467.00;;;;8402442;28;20198;-71
2023/03/26 06:18:31;;;;;;;10.73;2.67;;;;;7.80;95472.00;;;;8375567;28;20258;-71
2023/03/26 06:22:35;;;;;;;5.97;2.10;;;;;7.90;95470.00;;;;8415157;28;20225;-77
2023/03/26 06:26:38;;;;;;;5.97;2.17;;;;;8.10;95463.00;;;;8401969;28;20806;-71
2023/03/26 06:30:43;;;;;;;5.60;2.17;;;;;8.20;95443.00;;;;8401879;28;20216;-71
2023/03/26 06:34:49;;;;;;;2.20;2.00;;;;;8.40;95441.00;;;;8404522;28;20204;-72
2023/03/26 06:38:58;;;;;;;6.90;3.53;;;;;8.60;95438.00;;;;8401437;28;20188;-70
2023/03/26 06:43:01;;;;;;;4.67;2.13;;;;;8.70;95439.00;;;;8403462;28;20227;-73
2023/03/26 06:47:13;;;;;;;7.67;2.37;;;;;8.80;95438.00;;;;8410525;28;20199;-74
2023/03/26 06:51:19;;;;;;;7.33;2.73;;;;;8.80;95437.00;;;;8404378;28;20227;-71
2023/03/26 06:55:24;;;;;;;6.87;2.20;;;;;8.90;95437.00;;;;8405337;28;20185;-71
2023/03/26 06:59:27;;;;;;;3.53;1.80;;;;;8.90;95434.00;;;;8413113;28;20196;-75
2023/03/26 07:03:30;;;;;;;4.57;1.83;;;;;9.00;95424.00;;;;8421383;28;20218;-73
2023/03/26 07:07:33;;;;;;;4.60;1.90;;;;;9.10;95433.00;;;;8417339;28;20195;-72
2023/03/26 07:11:49;;;;;;;6.17;2.63;;;;;9.30;95426.00;;;;8413559;28;20287;-73
2023/03/26 07:16:00;;;;;;;5.87;2.67;;;;;9.50;95432.00;;;;8411410;28;20218;-74
2023/03/26 07:20:04;;;;;;;4.25;2.17;;;;;9.70;95426.00;;;;8397667;28;20192;-72
2023/03/26 07:24:11;;;;;;;4.70;2.10;;;;;9.80;95411.00;;;;8412819;28;20205;-75
2023/03/26 07:28:24;;;;;;;6.53;2.38;;;;;10.00;95405.00;;;;8420968;28;20223;-75
2023/03/26 07:32:34;;;;;;;6.38;2.50;;;;;10.10;95405.00;;;;8410819;28;20240;-75
2023/03/26 07:36:47;;;;;;;4.35;2.75;;;;;10.20;95395.00;;;;8412824;28;20207;-75
2023/03/26 07:41:00;;;;;;;4.50;1.90;;;;;10.30;95405.00;;;;8418606;28;20205;-74
2023/03/26 07:45:19;;;;;;;2.95;2.05;;;;;10.50;95389.00;;;;8405498;28;20191;-75
2023/03/26 07:49:25;;;;;;;3.10;1.90;;;;;10.60;95383.00;;;;8416419;28;20256;-74
2023/03/26 07:53:29;;;;;;;4.17;2.07;;;;;10.60;95384.00;;;;8405399;28;20206;-75
2023/03/26 07:57:46;;;;;;;6.28;2.10;;;;;10.40;95377.00;;;;8410525;28;20231;-75
2023/03/26 08:02:24;;;;;;;7.55;2.67;;;;;10.40;95367.00;;;;8412366;28;20232;-74
2023/03/26 08:06:32;;;;;;;7.13;2.25;;;;;10.40;95355.00;;;;8413632;28;20206;-74
2023/03/26 08:10:44;;;;;;;5.68;1.85;;;;;10.40;95352.00;;;;8403540;28;20284;-76
2023/03/26 08:14:53;;;;;;;6.18;2.00;;;;;10.30;95347.00;;;;8410133;28;20212;-75
2023/03/26 08:19:07;;;;;;;3.97;1.95;;;;;10.20;95340.00;;;;8407320;28;20307;-76
2023/03/26 08:23:17;;;;;;;4.35;2.08;;;;;10.10;95340.00;;;;8408974;28;20196;-77
2023/03/26 08:27:26;;;;;;;7.07;2.67;;;;;10.10;95338.00;;;;8409802;28;20211;-81
2023/03/26 08:31:37;;;;;;;2.97;1.88;;;;;10.00;95328.00;;;;8407559;28;21192;-78
2023/03/26 08:35:44;;;;;;;6.03;2.42;;;;;9.80;95325.00;;;;8411520;28;20204;-79
2023/03/26 08:39:52;;;;;;;9.05;2.30;;;;;9.70;95320.00;;;;8409518;28;20245;-74
2023/03/26 08:44:30;;;;;;;10.10;2.63;;;;;9.60;95320.00;;;;8404138;28;20626;-77
2023/03/26 08:49:07;;;;;;;10.00;2.83;;;;;9.60;95312.00;;;;8417369;28;20189;-77
2023/03/26 08:53:55;;;;;;;9.98;2.42;;;;;9.50;95303.00;;;;8342373;28;20199;-75
2023/03/26 08:58:28;;;;;;;8.70;1.90;;;;;9.50;95297.00;;;;8404813;28;20259;-72
2023/03/26 09:03:07;;;;;;;2.63;2.23;;;;;9.70;95277.00;;;;8396236;28;20305;-76
2023/03/26 09:07:56;;;;;;;9.90;2.50;;;;;9.80;95274.00;;;;8418142;28;20204;-75
2023/03/26 09:12:29;;;;;;;5.80;2.78;;;;;9.90;95263.00;;;;8412978;28;20274;-76
2023/03/26 09:17:09;;;;;;;9.43;2.60;;;;;10.10;95249.00;;;;8420686;28;20227;-75
2023/03/26 09:21:47;;;;;;;13.10;3.78;;;;;10.30;95238.00;;;;8354247;28;20631;-77
2023/03/26 09:26:26;;;;;;;5.80;3.03;;;;;10.40;95233.00;;;;8404333;28;20824;-76
2023/03/26 09:30:57;;;;;;;7.72;2.92;;;;;10.40;95226.00;;;;8409366;28;20256;-77
2023/03/26 09:35:15;;;;;;;14.35;3.10;;;;;10.40;95221.00;;;;8417885;28;20724;-76
2023/03/26 09:39:34;;;;;;;12.70;4.78;;;;;10.50;95206.00;;;;8409670;28;20732;-79
2023/03/26 09:44:13;;;;;;;13.27;3.30;;;;;10.50;95210.00;;;;8409161;28;20877;-81
2023/03/26 09:48:47;;;;;;;15.05;5.13;;;;;10.40;95201.00;;;;8413171;28;20674;-82
2023/03/26 09:53:04;;;;;;;14.80;4.13;;;;;10.20;95198.00;;;;8412291;28;20212;-81
2023/03/26 09:57:19;;;;;;;14.98;4.10;;;;;10.20;95191.00;;;;8419826;28;20192;-79
2023/03/26 10:01:33;;;;;;;17.08;5.25;;;;;10.30;95188.00;;;;8420740;28;20831;-83
2023/03/26 10:05:51;;;;;;;9.13;4.00;;;;;10.30;95177.00;;;;8403272;28;20195;-83
2023/03/26 10:10:03;;;;;;;29.35;17.08;;;;;10.10;95166.00;;;;8403980;28;20761;-85
2023/03/26 10:14:18;;;;;;;28.45;15.48;;;;;10.10;95178.00;;;;8403029;28;20211;-81
2023/03/26 10:18:33;;;;;;;32.15;16.13;;;;;10.10;95173.00;;;;8414853;28;20599;-78
2023/03/26 10:22:51;;;;;;;20.63;8.15;;;;;10.10;95169.00;;;;8407384;28;20568;-81
2023/03/26 10:27:23;;;;;;;14.25;3.50;;;;;10.10;95170.00;;;;8413114;28;20199;-81
2023/03/26 10:31:40;;;;;;;10.27;3.17;;;;;10.10;95179.00;;;;8414993;28;20245;-82
2023/03/26 10:35:59;;;;;;;13.02;3.53;;;;;9.90;95173.00;;;;8413215;28;20184;-79
2023/03/26 10:40:16;;;;;;;12.35;3.30;;;;;9.70;95182.00;;;;8423718;28;20247;-80
2023/03/26 10:44:42;;;;;;;12.13;2.72;;;;;9.60;95177.00;;;;8399201;28;20762;-76
2023/03/26 10:48:59;;;;;;;12.30;2.97;;;;;9.70;95169.00;;;;8415477;28;20195;-77
2023/03/26 10:53:10;;;;;;;12.48;2.40;;;;;9.60;95175.00;;;;8407251;28;20204;-79
2023/03/26 10:57:29;;;;;;;12.63;3.10;;;;;9.50;95182.00;;;;8414962;28;20292;-81
2023/03/26 11:01:42;;;;;;;7.90;2.50;;;;;9.30;95178.00;;;;8428216;28;20238;-78
2023/03/26 11:05:51;;;;;;;3.25;1.73;;;;;9.00;95170.00;;;;8427827;28;20626;-78
2023/03/26 11:10:02;;;;;;;8.10;2.15;;;;;8.90;95176.00;;;;8412544;28;20227;-76
2023/03/26 11:14:17;;;;;;;5.93;2.07;;;;;8.80;95186.00;;;;8411763;28;20200;-77
2023/03/26 11:18:52;;;;;;;13.80;2.67;;;;;8.70;95178.00;;;;8405955;28;20211;-76
2023/03/26 11:23:07;;;;;;;11.60;2.38;;;;;8.90;95171.00;;;;8426476;28;20246;-76
2023/03/26 11:27:16;;;;;;;7.38;1.67;;;;;9.10;95172.00;;;;8412332;28;20195;-75
2023/03/26 11:31:32;;;;;;;10.13;2.07;;;;;8.80;95166.00;;;;8418852;28;20229;-76
2023/03/26 11:35:42;;;;;;;5.00;1.77;;;;;8.80;95160.00;;;;8409233;28;20401;-76
2023/03/26 11:39:51;;;;;;;7.28;1.90;;;;;8.60;95154.00;;;;8413159;28;20211;-75
2023/03/26 11:44:02;;;;;;;7.80;2.50;;;;;8.50;95155.00;;;;8416840;28;20281;-75
2023/03/26 11:48:10;;;;;;;6.13;1.87;;;;;8.50;95165.00;;;;8408365;28;20195;-75
2023/03/26 11:52:15;;;;;;;4.05;2.70;;;;;8.50;95153.00;;;;8412493;28;20253;-78
2023/03/26 11:56:27;;;;;;;11.87;2.33;;;;;8.60;95139.00;;;;8404628;28;20199;-80
2023/03/26 12:00:33;;;;;;;2.63;2.17;;;;;9.00;95117.00;;;;8399173;28;20262;-81
2023/03/26 12:04:39;;;;;;;4.00;2.10;;;;;9.80;95101.00;;;;8415939;28;20255;-81
2023/03/26 12:08:47;;;;;;;8.35;2.88;;;;;10.50;95091.00;;;;8432491;28;20197;-79
2023/03/26 12:12:59;;;;;;;9.82;2.40;;;;;11.10;95092.00;;;;8433970;28;20268;-79
2023/03/26 12:17:07;;;;;;;6.60;2.17;;;;;11.10;95083.00;;;;8432144;28;20284;-79
2023/03/26 12:21:16;;;;;;;9.15;3.10;;;;;10.70;95073.00;;;;8434525;28;20248;-79
2023/03/26 12:25:23;;;;;;;6.90;2.70;;;;;10.60;95062.00;;;;8434124;28;20187;-80
2023/03/26 12:29:33;;;;;;;6.28;4.07;;;;;10.40;95062.00;;;;8434662;28;20191;-80
2023/03/26 12:33:37;;;;;;;3.92;2.13;;;;;10.50;95061.00;;;;8434577;28;20213;-79
2023/03/26 12:37:43;;;;;;;2.58;1.98;;;;;11.00;95037.00;;;;8432709;28;20237;-79
2023/03/26 12:41:56;;;;;;;7.07;2.50;;;;;11.30;95040.00;;;;8433910;28;20637;-76
2023/03/26 12:46:29;;;;;;;3.55;2.30;;;;;12.00;95040.00;;;;8434101;28;20193;-79
2023/03/26 12:51:14;;;;;;;10.13;4.40;;;;;12.30;95037.00;;;;8433406;28;20226;-77
2023/03/26 12:55:34;;;;;;;5.35;2.70;;;;;11.80;95039.00;;;;8458814;28;20243;-77
2023/03/26 13:00:08;;;;;;;7.18;3.00;;;;;11.70;95035.00;;;;8465722;28;20194;-77
2023/03/26 13:04:25;;;;;;;7.78;3.00;;;;;11.80;95031.00;;;;8466629;28;20222;-77
2023/03/26 13:09:03;;;;;;;3.72;2.65;;;;;11.50;95028.00;;;;8463791;28;20298;-78
2023/03/26 13:13:31;;;;;;;6.13;2.78;;;;;11.50;95035.00;;;;8440944;28;20222;-77
2023/03/26 13:17:43;;;;;;;3.17;2.80;;;;;11.50;95012.00;;;;8465120;28;20200;-76
2023/03/26 13:21:58;;;;;;;6.22;2.97;;;;;11.80;94999.00;;;;8463897;28;20191;-77
2023/03/26 13:26:14;;;;;;;3.97;2.17;;;;;12.00;94995.00;;;;8465460;28;20186;-76
2023/03/26 13:30:36;;;;;;;8.05;2.70;;;;;12.10;94978.00;;;;8447867;28;20220;-76
2023/03/26 13:34:55;;;;;;;9.60;2.58;;;;;12.60;94994.00;;;;8465936;28;20196;-76
2023/03/26 13:39:09;;;;;;;4.25;2.30;;;;;13.00;94994.00;;;;8466454;28;20334;-76
2023/03/26 13:43:26;;;;;;;2.40;2.20;;;;;13.00;94992.00;;;;8465846;28;20238;-75
2023/03/26 13:47:34;;;;;;;3.40;2.10;;;;;12.60;94979.00;;;;8465076;28;20566;-75
2023/03/26 13:51:49;;;;;;;7.43;2.75;;;;;12.20;94990.00;;;;8466022;28;20308;-75
2023/03/26 13:55:57;;;;;;;4.47;1.80;;;;;11.80;94981.00;;;;8465075;28;20231;-78
2023/03/26 14:00:06;;;;;;;6.75;3.17;;;;;11.10;94983.00;;;;8465265;28;20194;-76
2023/03/26 14:04:18;;;;;;;8.10;3.03;;;;;11.00;94978.00;;;;8465493;28;20720;-76
2023/03/26 14:08:30;;;;;;;6.85;2.85;;;;;11.30;94974.00;;;;8447681;28;20248;-76
2023/03/26 14:12:48;;;;;;;7.60;3.20;;;;;11.20;94951.00;;;;8465652;28;20589;-76
2023/03/26 14:16:56;;;;;;;7.25;2.60;;;;;11.20;94942.00;;;;8464216;28;20201;-75
2023/03/26 14:21:37;;;;;;;3.40;2.35;;;;;11.00;94935.00;;;;8464469;28;20182;-75
2023/03/26 14:26:01;;;;;;;6.00;2.92;;;;;11.00;94913.00;;;;8458777;28;20198;-76
2023/03/26 14:30:35;;;;;;;2.70;2.03;;;;;11.60;94915.00;;;;8464053;28;20580;-78
2023/03/26 14:34:53;;;;;;;4.82;1.98;;;;;11.90;94915.00;;;;8466341;28;20269;-78
2023/03/26 14:39:20;;;;;;;5.00;2.00;;;;;11.90;94913.00;;;;8469472;28;20193;-85
2023/03/26 14:44:14;;;;;;;2.80;1.80;;;;;12.00;94904.00;;;;8460475;28;20193;-81
2023/03/26 14:48:48;;;;;;;2.50;1.80;;;;;12.20;94893.00;;;;8452224;28;20191;-79
2023/03/26 14:52:55;;;;;;;5.72;2.00;;;;;12.10;94892.00;;;;8469886;28;20225;-81
2023/03/26 14:57:53;;;;;;;1.90;1.80;;;;;12.00;94888.00;;;;8469613;28;20697;-79
2023/03/26 15:02:27;;;;;;;2.45;1.50;;;;;11.70;94892.00;;;;8470012;28;20700;-79
2023/03/26 15:07:04;;;;;;;1.80;1.70;;;;;11.50;94897.00;;;;8427303;28;20517;-81
2023/03/26 15:11:33;;;;;;;2.63;1.75;;;;;11.50;94900.00;;;;8469100;28;20670;-81
2023/03/26 15:16:08;;;;;;;2.47;1.75;;;;;11.50;94899.00;;;;8469260;28;20202;-77
2023/03/26 15:20:56;;;;;;;3.55;1.40;;;;;11.50;94902.00;;;;8468477;28;20186;-78
2023/03/26 15:25:53;;;;;;;4.22;1.80;;;;;11.40;94902.00;;;;8374746;28;20197;-74
2023/03/26 15:30:30;;;;;;;5.00;2.50;;;;;11.30;94910.00;;;;8390163;28;20686;-82
2023/03/26 15:35:09;;;;;;;15.65;6.82;;;;;11.30;94914.00;;;;8466005;28;20605;-78
2023/03/26 15:39:44;;;;;;;25.58;12.05;;;;;11.40;94903.00;;;;8468492;28;20706;-72
2023/03/26 15:44:20;;;;;;;21.90;10.73;;;;;11.10;94915.00;;;;8468416;28;20247;-73
2023/03/26 15:48:41;;;;;;;3.97;2.90;;;;;10.90;94919.00;;;;8467700;28;20182;-73
2023/03/26 15:52:55;;;;;;;1.52;1.52;;;;;10.80;94914.00;;;;8465785;28;20214;-71
2023/03/26 15:57:20;;;;;;;5.55;3.33;;;;;11.00;94906.00;;;;8434311;28;20197;-70
2023/03/26 16:01:36;;;;;;;90.20;62.50;;;;;11.10;94910.00;;;;8467511;28;20628;-70
2023/03/26 16:05:53;;;;;;;5.68;5.10;;;;;11.50;94906.00;;;;8467772;28;20291;-70
2023/03/26 16:10:10;;;;;;;1.95;1.85;;;;;11.80;94914.00;;;;8466316;28;20639;-70
2023/03/26 16:14:22;;;;;;;3.10;2.90;;;;;12.00;94905.00;;;;8467811;28;20226;-70
2023/03/26 16:18:36;;;;;;;1.77;1.60;;;;;12.20;94922.00;;;;8468358;28;20226;-70
2023/03/26 16:22:54;;;;;;;1.20;1.20;;;;;12.50;94916.00;;;;8468487;28;20202;-70
2023/03/26 16:27:08;;;;;;;1.23;1.20;;;;;12.80;94913.00;;;;8467323;28;20531;-70
2023/03/26 16:31:34;;;;;;;2.47;1.40;;;;;12.50;94909.00;;;;8468030;28;20198;-71
2023/03/26 16:36:00;;;;;;;1.70;1.50;;;;;12.10;94901.00;;;;8467734;28;20255;-70
2023/03/26 16:40:32;;;;;;;1.77;1.70;;;;;11.70;94893.00;;;;8467185;28;20235;-71
2023/03/26 16:44:44;;;;;;;2.35;1.80;;;;;11.40;94894.00;;;;8459158;28;20292;-71
2023/03/26 16:48:55;;;;;;;5.10;4.70;;;;;11.20;94886.00;;;;8467864;28;20207;-69
2023/03/26 16:53:05;;;;;;;5.15;4.28;;;;;11.00;94883.00;;;;8466257;28;20221;-69
2023/03/26 16:57:21;;;;;;;3.03;2.83;;;;;10.90;94884.00;;;;8466590;28;20194;-69
2023/03/26 17:01:41;;;;;;;3.30;3.00;;;;;10.80;94882.00;;;;8465929;28;20239;-71
2023/03/26 17:06:02;;;;;;;3.78;2.17;;;;;10.70;94880.00;;;;8466758;28;20188;-70
2023/03/26 17:10:13;;;;;;;2.88;1.98;;;;;10.70;94886.00;;;;8460479;28;20323;-69
2023/03/26 17:14:31;;;;;;;3.70;2.30;;;;;10.60;94888.00;;;;8463314;28;20211;-69
2023/03/26 17:18:50;;;;;;;4.40;2.78;;;;;10.40;94868.00;;;;8447025;28;20188;-69
2023/03/26 17:23:04;;;;;;;4.95;3.20;;;;;10.10;94859.00;;;;8466194;28;20240;-69
2023/03/26 17:27:23;;;;;;;10.23;5.10;;;;;10.00;94876.00;;;;8465496;28;20194;-69
2023/03/26 17:31:51;;;;;;;4.65;3.35;;;;;9.90;94873.00;;;;8457654;28;20728;-70
2023/03/26 17:36:20;;;;;;;4.60;2.70;;;;;9.70;94863.00;;;;8459885;28;20199;-69
2023/03/26 17:40:31;;;;;;;11.95;4.93;;;;;9.60;94864.00;;;;8464576;28;20521;-69
2023/03/26 17:44:43;;;;;;;11.40;6.18;;;;;9.50;94859.00;;;;8465727;28;20200;-70
2023/03/26 17:48:56;;;;;;;3.80;3.17;;;;;9.50;94866.00;;;;8464197;28;20254;-70
2023/03/26 17:53:05;;;;;;;3.92;2.40;;;;;9.50;94856.00;;;;8464968;28;20318;-70
2023/03/26 17:57:15;;;;;;;3.95;2.80;;;;;9.40;94856.00;;;;8461484;28;20194;-70
2023/03/26 18:01:23;;;;;;;3.45;2.72;;;;;9.50;94859.00;;;;8464735;28;20196;-70
2023/03/26 18:05:31;;;;;;;2.53;2.33;;;;;9.50;94866.00;;;;8463978;28;20263;-69
2023/03/26 18:09:48;;;;;;;4.47;2.90;;;;;9.50;94876.00;;;;8464632;28;20190;-70
2023/03/26 18:14:33;;;;;;;5.05;2.63;;;;;9.60;94877.00;;;;8465195;28;20597;-70
2023/03/26 18:18:42;;;;;;;4.82;3.00;;;;;9.70;94875.00;;;;8455383;28;20699;-70
2023/03/26 18:22:50;;;;;;;3.40;2.50;;;;;9.70;94873.00;;;;8464755;28;20237;-70
2023/03/26 18:26:58;;;;;;;3.88;3.13;;;;;9.70;94865.00;;;;8464206;28;20194;-69
2023/03/26 18:31:12;;;;;;;3.90;2.92;;;;;9.70;94871.00;;;;8464282;28;20178;-69
2023/03/26 18:35:21;;;;;;;4.03;2.50;;;;;9.80;94878.00;;;;8464360;28;20215;-69
2023/03/26 18:39:26;;;;;;;60.33;30.27;;;;;9.70;94882.00;;;;8459041;28;20240;-69
2023/03/26 18:43:34;;;;;;;307.65;137.48;;;;;9.70;94892.00;;;;8459020;28;20240;-69
2023/03/26 18:47:50;;;;;;;394.38;186.95;;;;;9.70;94900.00;;;;8440973;28;20285;-69
2023/03/26 18:52:00;;;;;;;1999.90;786.97;;;;;9.60;94890.00;;;;8462365;28;20634;-70
2023/03/26 18:56:18;;;;;;;701.20;301.95;;;;;9.40;94874.00;;;;8463471;28;20539;-70
2023/03/26 19:00:29;;;;;;;282.02;120.50;;;;;9.30;94876.00;;;;8462134;28;20214;-70
2023/03/26 19:04:33;;;;;;;154.35;61.38;;;;;9.30;94876.00;;;;8462830;28;20222;-70
2023/03/26 19:08:39;;;;;;;348.88;116.40;;;;;9.20;94888.00;;;;8463610;28;20620;-70
2023/03/26 19:12:46;;;;;;;356.65;109.70;;;;;9.20;94883.00;;;;8463645;28;20254;-70
2023/03/26 19:16:55;;;;;;;164.70;46.87;;;;;9.10;94899.00;;;;8463691;28;20198;-69
2023/03/26 19:21:02;;;;;;;654.50;183.00;;;;;9.10;94897.00;;;;8469567;28;20202;-69
2023/03/26 19:25:06;;;;;;;323.77;87.78;;;;;8.90;94885.00;;;;8469645;28;20191;-69
2023/03/26 19:29:13;;;;;;;1574.67;339.97;;;;;8.80;94883.00;;;;8468942;28;20206;-69
2023/03/26 19:33:18;;;;;;;900.17;230.93;;;;;8.80;94881.00;;;;8468831;28;20252;-69
2023/03/26 19:37:28;;;;;;;796.08;185.88;;;;;8.70;94875.00;;;;8468567;28;20519;-69
2023/03/26 19:41:38;;;;;;;538.00;109.35;;;;;8.60;94885.00;;;;8469549;28;20194;-69
2023/03/26 19:45:43;;;;;;;559.75;113.95;;;;;8.60;94880.00;;;;8468613;28;20191;-69
2023/03/26 19:50:22;;;;;;;185.50;80.60;;;;;8.50;94882.00;;;;8469173;28;20529;-69
2023/03/26 19:54:25;;;;;;;93.20;60.97;;;;;8.30;94875.00;;;;8467886;28;20225;-70
2023/03/26 19:58:31;;;;;;;32.67;26.00;;;;;8.20;94871.00;;;;8467343;28;20191;-70
2023/03/26 20:02:36;;;;;;;38.95;34.63;;;;;8.20;94876.00;;;;8467285;28;20275;-70
2023/03/26 20:06:40;;;;;;;13.07;10.00;;;;;8.20;94883.00;;;;8443721;28;20239;-70
2023/03/26 20:10:57;;;;;;;5.45;5.07;;;;;8.10;94879.00;;;;8465760;28;20189;-70
2023/03/26 20:15:13;;;;;;;13.03;9.97;;;;;8.10;94884.00;;;;8448607;28;20268;-70
2023/03/26 20:19:30;;;;;;;1.90;1.30;;;;;8.10;94888.00;;;;8466403;28;20542;-70
2023/03/26 20:23:36;;;;;;;2.97;1.27;;;;;8.00;94890.00;;;;8467618;28;20209;-71
2023/03/26 20:27:51;;;;;;;1.30;1.20;;;;;7.90;94890.00;;;;8467036;28;20244;-72
2023/03/26 20:32:00;;;;;;;1.38;1.27;;;;;7.90;94897.00;;;;8466311;28;20281;-72
2023/03/26 20:36:08;;;;;;;2.47;1.20;;;;;7.80;94910.00;;;;8467671;28;20219;-72
2023/03/26 20:40:12;;;;;;;2.00;1.30;;;;;7.80;94911.00;;;;8467568;28;20520;-72
2023/03/26 20:44:17;;;;;;;2.00;1.10;;;;;7.80;94912.00;;;;8467670;28;20195;-72
2023/03/26 20:48:21;;;;;;;1.03;1.03;;;;;7.80;94915.00;;;;8466375;28;20195;-72
2023/03/26 20:52:32;;;;;;;1.37;1.00;;;;;7.80;94915.00;;;;8467591;28;20190;-72
2023/03/26 20:56:40;;;;;;;2.93;1.33;;;;;7.80;94914.00;;;;8466658;28;20635;-72
2023/03/26 21:00:45;;;;;;;1.10;1.10;;;;;7.80;94910.00;;;;8465700;28;20191;-72
2023/03/26 21:04:56;;;;;;;1.23;1.20;;;;;7.70;94915.00;;;;8467140;28;20219;-71
2023/03/26 21:09:02;;;;;;;1.10;1.10;;;;;7.70;94916.00;;;;8466481;28;20536;-71
2023/03/26 21:13:10;;;;;;;1.10;1.10;;;;;7.60;94909.00;;;;8465491;28;20221;-71
2023/03/26 21:17:17;;;;;;;1.20;1.20;;;;;7.60;94897.00;;;;8466586;28;20179;-71